sensor_id;sensor_type;location;lat;lon;timestamp;temperature;humidity
40589;DHT22;26297;49.450;6.640;2023-09-18T00:00:04;20.20;99.90
40589;DHT22;26297;49.450;6.640;2023-09-18T00:03:17;20.20;99.90
40589;DHT22;26297;49.450;6.640;2023-09-18T00:06:21;20.20;99.90
40589;DHT22;26297;49.450;6.640;2023-09-18T00:09:26;20.20;99.90
40589;DHT22;26297;49.450;6.640;2023-09-18T00:12:30;20.20;99.90
40589;DHT22;26297;49.450;6.640;2023-09-18T00:15:33;20.20;99.90
40589;DHT22;26297;49.450;6.640;2023-09-18T00:18:36;20.20;99.90
40589;DHT22;26297;49.450;6.640;2023-09-18T00:21:39;20.20;99.90
40589;DHT22;26297;49.450;6.640;2023-09-18T00:24:42;20.20;99.90
40589;DHT22;26297;49.450;6.640;2023-09-18T00:27:45;20.20;99.90
40589;DHT22;26297;49.450;6.640;2023-09-18T00:30:49;20.20;99.90
40589;DHT22;26297;49.450;6.640;2023-09-18T00:33:52;20.20;99.90
40589;DHT22;26297;49.450;6.640;2023-09-18T00:36:55;20.20;99.90
40589;DHT22;26297;49.450;6.640;2023-09-18T00:39:58;20.20;99.90
40589;DHT22;26297;49.450;6.640;2023-09-18T00:43:02;20.20;99.90
40589;DHT22;26297;49.450;6.640;2023-09-18T00:46:05;20.30;99.90
40589;DHT22;26297;49.450;6.640;2023-09-18T00:49:08;20.30;99.90
40589;DHT22;26297;49.450;6.640;2023-09-18T00:52:12;20.40;99.90
40589;DHT22;26297;49.450;6.640;2023-09-18T00:55:16;20.40;99.90
40589;DHT22;26297;49.450;6.640;2023-09-18T00:58:19;20.40;99.90
40589;DHT22;26297;49.450;6.640;2023-09-18T01:01:22;20.40;99.90
40589;DHT22;26297;49.450;6.640;2023-09-18T01:04:25;20.40;99.90
40589;DHT22;26297;49.450;6.640;2023-09-18T01:07:31;20.50;99.90
40589;DHT22;26297;49.450;6.640;2023-09-18T01:10:45;20.50;99.90
40589;DHT22;26297;49.450;6.640;2023-09-18T01:13:57;20.50;99.90
40589;DHT22;26297;49.450;6.640;2023-09-18T01:17:03;20.50;99.90
40589;DHT22;26297;49.450;6.640;2023-09-18T01:20:11;20.60;99.90
40589;DHT22;26297;49.450;6.640;2023-09-18T01:23:14;20.50;99.90
40589;DHT22;26297;49.450;6.640;2023-09-18T01:26:17;20.50;99.90
40589;DHT22;26297;49.450;6.640;2023-09-18T01:29:21;20.50;99.90
40589;DHT22;26297;49.450;6.640;2023-09-18T01:32:25;20.50;99.90
40589;DHT22;26297;49.450;6.640;2023-09-18T01:35:33;20.50;99.90
40589;DHT22;26297;49.450;6.640;2023-09-18T01:38:36;20.50;99.90
40589;DHT22;26297;49.450;6.640;2023-09-18T01:41:40;20.50;99.90
40589;DHT22;26297;49.450;6.640;2023-09-18T01:44:44;20.50;99.90
40589;DHT22;26297;49.450;6.640;2023-09-18T01:47:47;20.50;99.90
40589;DHT22;26297;49.450;6.640;2023-09-18T01:50:50;20.50;99.90
40589;DHT22;26297;49.450;6.640;2023-09-18T01:53:54;20.40;99.90
40589;DHT22;26297;49.450;6.640;2023-09-18T01:56:57;20.40;99.90
40589;DHT22;26297;49.450;6.640;2023-09-18T02:00:00;20.50;99.90
40589;DHT22;26297;49.450;6.640;2023-09-18T02:03:03;20.50;99.90
40589;DHT22;26297;49.450;6.640;2023-09-18T02:06:07;20.40;99.90
40589;DHT22;26297;49.450;6.640;2023-09-18T02:09:11;20.40;99.90
40589;DHT22;26297;49.450;6.640;2023-09-18T02:12:14;20.40;99.90
40589;DHT22;26297;49.450;6.640;2023-09-18T02:15:20;20.40;99.90
40589;DHT22;26297;49.450;6.640;2023-09-18T02:18:23;20.40;99.90
40589;DHT22;26297;49.450;6.640;2023-09-18T02:21:26;20.40;99.90
40589;DHT22;26297;49.450;6.640;2023-09-18T02:24:30;20.40;99.90
40589;DHT22;26297;49.450;6.640;2023-09-18T02:27:33;20.40;99.90
40589;DHT22;26297;49.450;6.640;2023-09-18T02:30:36;20.40;99.90
40589;DHT22;26297;49.450;6.640;2023-09-18T02:33:40;20.30;99.90
40589;DHT22;26297;49.450;6.640;2023-09-18T02:36:43;20.30;99.90
40589;DHT22;26297;49.450;6.640;2023-09-18T02:39:55;20.30;99.90
40589;DHT22;26297;49.450;6.640;2023-09-18T02:43:25;20.30;99.90
40589;DHT22;26297;49.450;6.640;2023-09-18T02:46:28;20.30;99.90
40589;DHT22;26297;49.450;6.640;2023-09-18T02:49:32;20.40;99.90
40589;DHT22;26297;49.450;6.640;2023-09-18T02:52:36;20.40;99.90
40589;DHT22;26297;49.450;6.640;2023-09-18T02:55:39;20.40;99.90
40589;DHT22;26297;49.450;6.640;2023-09-18T03:59:57;20.30;99.90
40589;DHT22;26297;49.450;6.640;2023-09-18T04:03:00;20.30;99.90
40589;DHT22;26297;49.450;6.640;2023-09-18T04:06:03;20.20;99.90
40589;DHT22;26297;49.450;6.640;2023-09-18T04:09:06;20.20;99.90
40589;DHT22;26297;49.450;6.640;2023-09-18T04:12:09;20.20;99.90
40589;DHT22;26297;49.450;6.640;2023-09-18T04:15:15;20.20;99.90
40589;DHT22;26297;49.450;6.640;2023-09-18T04:18:31;20.20;99.90
40589;DHT22;26297;49.450;6.640;2023-09-18T04:21:34;20.20;99.90
40589;DHT22;26297;49.450;6.640;2023-09-18T04:24:37;20.10;99.90
40589;DHT22;26297;49.450;6.640;2023-09-18T04:27:40;20.20;99.90
40589;DHT22;26297;49.450;6.640;2023-09-18T04:30:43;20.10;99.90
40589;DHT22;26297;49.450;6.640;2023-09-18T04:33:47;20.20;99.90
40589;DHT22;26297;49.450;6.640;2023-09-18T04:36:50;20.10;99.90
40589;DHT22;26297;49.450;6.640;2023-09-18T04:39:53;20.10;99.90
40589;DHT22;26297;49.450;6.640;2023-09-18T04:42:56;20.10;99.90
40589;DHT22;26297;49.450;6.640;2023-09-18T04:46:00;20.10;99.90
40589;DHT22;26297;49.450;6.640;2023-09-18T04:49:05;20.20;99.90
40589;DHT22;26297;49.450;6.640;2023-09-18T04:52:10;20.20;99.90
40589;DHT22;26297;49.450;6.640;2023-09-18T04:55:13;20.20;99.90
40589;DHT22;26297;49.450;6.640;2023-09-18T04:58:16;20.20;99.90
40589;DHT22;26297;49.450;6.640;2023-09-18T05:01:20;20.20;99.90
40589;DHT22;26297;49.450;6.640;2023-09-18T05:04:28;20.20;99.90
40589;DHT22;26297;49.450;6.640;2023-09-18T05:07:37;20.20;99.90
40589;DHT22;26297;49.450;6.640;2023-09-18T05:10:49;20.20;99.90
40589;DHT22;26297;49.450;6.640;2023-09-18T05:13:52;20.20;99.90
40589;DHT22;26297;49.450;6.640;2023-09-18T05:16:55;20.20;99.90
40589;DHT22;26297;49.450;6.640;2023-09-18T05:19:59;20.10;99.90
40589;DHT22;26297;49.450;6.640;2023-09-18T05:23:04;20.10;99.90
40589;DHT22;26297;49.450;6.640;2023-09-18T05:26:07;20.10;99.90
40589;DHT22;26297;49.450;6.640;2023-09-18T05:29:10;20.10;99.90
40589;DHT22;26297;49.450;6.640;2023-09-18T05:32:13;20.20;99.90
40589;DHT22;26297;49.450;6.640;2023-09-18T05:35:19;20.20;99.90
40589;DHT22;26297;49.450;6.640;2023-09-18T05:38:22;20.20;99.90
40589;DHT22;26297;49.450;6.640;2023-09-18T05:41:25;20.10;99.90
40589;DHT22;26297;49.450;6.640;2023-09-18T05:44:31;20.10;99.90
40589;DHT22;26297;49.450;6.640;2023-09-18T05:47:34;20.10;99.90
40589;DHT22;26297;49.450;6.640;2023-09-18T05:50:41;20.00;99.90
40589;DHT22;26297;49.450;6.640;2023-09-18T05:53:47;20.00;99.90
40589;DHT22;26297;49.450;6.640;2023-09-18T05:56:50;20.00;99.90
40589;DHT22;26297;49.450;6.640;2023-09-18T05:59:57;20.00;99.90
40589;DHT22;26297;49.450;6.640;2023-09-18T06:03:03;20.00;99.90
40589;DHT22;26297;49.450;6.640;2023-09-18T06:06:09;20.00;99.90
40589;DHT22;26297;49.450;6.640;2023-09-18T06:09:12;20.10;99.90
40589;DHT22;26297;49.450;6.640;2023-09-18T06:12:19;20.10;99.90
40589;DHT22;26297;49.450;6.640;2023-09-18T08:24:02;20.20;99.90
40589;DHT22;26297;49.450;6.640;2023-09-18T08:41:14;20.20;99.90
40589;DHT22;26297;49.450;6.640;2023-09-18T08:50:43;20.30;99.90
40589;DHT22;26297;49.450;6.640;2023-09-18T09:40:14;20.60;99.90
40589;DHT22;26297;49.450;6.640;2023-09-18T09:43:31;20.60;99.90
40589;DHT22;26297;49.450;6.640;2023-09-18T09:46:48;20.50;99.90
40589;DHT22;26297;49.450;6.640;2023-09-18T09:50:04;20.60;99.90
40589;DHT22;26297;49.450;6.640;2023-09-18T10:36:36;20.60;99.90
40589;DHT22;26297;49.450;6.640;2023-09-18T10:39:41;20.60;99.90
40589;DHT22;26297;49.450;6.640;2023-09-18T10:42:44;20.60;99.90
40589;DHT22;26297;49.450;6.640;2023-09-18T10:45:49;20.60;99.90
40589;DHT22;26297;49.450;6.640;2023-09-18T10:48:59;20.60;99.90
40589;DHT22;26297;49.450;6.640;2023-09-18T10:52:03;20.60;99.90
40589;DHT22;26297;49.450;6.640;2023-09-18T10:55:07;20.70;99.90
40589;DHT22;26297;49.450;6.640;2023-09-18T10:58:13;20.70;99.90
40589;DHT22;26297;49.450;6.640;2023-09-18T11:01:31;20.70;99.90
40589;DHT22;26297;49.450;6.640;2023-09-18T11:04:35;20.70;99.90
40589;DHT22;26297;49.450;6.640;2023-09-18T11:07:39;20.70;99.90
40589;DHT22;26297;49.450;6.640;2023-09-18T11:11:01;20.80;99.90
40589;DHT22;26297;49.450;6.640;2023-09-18T11:14:10;20.80;99.90
40589;DHT22;26297;49.450;6.640;2023-09-18T12:12:19;21.10;99.90
40589;DHT22;26297;49.450;6.640;2023-09-18T12:15:22;21.10;99.90
40589;DHT22;26297;49.450;6.640;2023-09-18T15:26:23;21.30;99.90
40589;DHT22;26297;49.450;6.640;2023-09-18T15:51:37;21.10;99.90
40589;DHT22;26297;49.450;6.640;2023-09-18T15:54:40;21.10;99.90
40589;DHT22;26297;49.450;6.640;2023-09-18T15:57:52;21.10;99.90
40589;DHT22;26297;49.450;6.640;2023-09-18T16:00:58;21.10;99.90
40589;DHT22;26297;49.450;6.640;2023-09-18T16:07:37;21.20;99.90
40589;DHT22;26297;49.450;6.640;2023-09-18T16:10:51;21.30;99.90
40589;DHT22;26297;49.450;6.640;2023-09-18T16:14:14;21.30;99.90
40589;DHT22;26297;49.450;6.640;2023-09-18T16:17:23;21.30;99.90
40589;DHT22;26297;49.450;6.640;2023-09-18T16:20:35;21.20;99.90
40589;DHT22;26297;49.450;6.640;2023-09-18T16:23:38;21.30;99.90
40589;DHT22;26297;49.450;6.640;2023-09-18T16:26:41;21.20;99.90
40589;DHT22;26297;49.450;6.640;2023-09-18T16:29:51;21.20;99.90
40589;DHT22;26297;49.450;6.640;2023-09-18T16:32:54;21.20;99.90
40589;DHT22;26297;49.450;6.640;2023-09-18T16:35:57;21.20;99.90
40589;DHT22;26297;49.450;6.640;2023-09-18T16:39:03;21.20;99.90
40589;DHT22;26297;49.450;6.640;2023-09-18T16:42:10;21.10;99.90
40589;DHT22;26297;49.450;6.640;2023-09-18T16:45:13;21.10;99.90
40589;DHT22;26297;49.450;6.640;2023-09-18T16:48:16;21.10;99.90
40589;DHT22;26297;49.450;6.640;2023-09-18T16:51:19;21.10;99.90
40589;DHT22;26297;49.450;6.640;2023-09-18T16:54:23;21.10;99.90
40589;DHT22;26297;49.450;6.640;2023-09-18T16:57:28;21.10;99.90
40589;DHT22;26297;49.450;6.640;2023-09-18T17:00:31;21.10;99.90
40589;DHT22;26297;49.450;6.640;2023-09-18T17:03:35;21.10;99.90
40589;DHT22;26297;49.450;6.640;2023-09-18T17:06:38;21.10;99.90
40589;DHT22;26297;49.450;6.640;2023-09-18T17:09:41;21.10;99.90
40589;DHT22;26297;49.450;6.640;2023-09-18T17:12:44;21.10;99.90
40589;DHT22;26297;49.450;6.640;2023-09-18T17:15:47;21.10;99.90
40589;DHT22;26297;49.450;6.640;2023-09-18T17:18:54;21.10;99.90
40589;DHT22;26297;49.450;6.640;2023-09-18T17:22:03;21.10;99.90
40589;DHT22;26297;49.450;6.640;2023-09-18T17:25:07;21.10;99.90
40589;DHT22;26297;49.450;6.640;2023-09-18T17:28:15;21.10;99.90
40589;DHT22;26297;49.450;6.640;2023-09-18T17:31:18;21.10;99.90
40589;DHT22;26297;49.450;6.640;2023-09-18T17:34:30;21.10;99.90
40589;DHT22;26297;49.450;6.640;2023-09-18T17:37:36;21.10;99.90
40589;DHT22;26297;49.450;6.640;2023-09-18T17:40:39;21.00;99.90
40589;DHT22;26297;49.450;6.640;2023-09-18T17:43:42;21.00;99.90
40589;DHT22;26297;49.450;6.640;2023-09-18T17:50:08;21.00;99.90
40589;DHT22;26297;49.450;6.640;2023-09-18T17:53:11;21.00;99.90
40589;DHT22;26297;49.450;6.640;2023-09-18T17:56:15;21.00;99.90
40589;DHT22;26297;49.450;6.640;2023-09-18T17:59:22;21.00;99.90
40589;DHT22;26297;49.450;6.640;2023-09-18T18:02:34;20.90;99.90
40589;DHT22;26297;49.450;6.640;2023-09-18T18:05:39;21.00;99.90
40589;DHT22;26297;49.450;6.640;2023-09-18T18:08:55;20.90;99.90
40589;DHT22;26297;49.450;6.640;2023-09-18T18:11:58;20.90;99.90
40589;DHT22;26297;49.450;6.640;2023-09-18T18:15:01;20.80;99.90
40589;DHT22;26297;49.450;6.640;2023-09-18T18:18:04;20.90;99.90
40589;DHT22;26297;49.450;6.640;2023-09-18T18:21:11;20.80;99.90
40589;DHT22;26297;49.450;6.640;2023-09-18T18:24:14;20.80;99.90
40589;DHT22;26297;49.450;6.640;2023-09-18T18:31:32;20.80;99.90
40589;DHT22;26297;49.450;6.640;2023-09-18T18:38:27;20.80;99.90
40589;DHT22;26297;49.450;6.640;2023-09-18T18:41:39;20.80;99.90
40589;DHT22;26297;49.450;6.640;2023-09-18T18:56:22;20.80;99.90
40589;DHT22;26297;49.450;6.640;2023-09-18T18:59:26;20.70;99.90
40589;DHT22;26297;49.450;6.640;2023-09-18T19:02:33;20.70;99.90
40589;DHT22;26297;49.450;6.640;2023-09-18T19:26:26;20.50;99.90
40589;DHT22;26297;49.450;6.640;2023-09-18T19:37:02;20.40;99.90
40589;DHT22;26297;49.450;6.640;2023-09-18T19:40:05;20.40;99.90
40589;DHT22;26297;49.450;6.640;2023-09-18T19:43:09;20.40;99.90
40589;DHT22;26297;49.450;6.640;2023-09-18T19:46:21;20.40;99.90
40589;DHT22;26297;49.450;6.640;2023-09-18T19:49:31;20.50;99.90
40589;DHT22;26297;49.450;6.640;2023-09-18T19:52:34;20.30;99.90
40589;DHT22;26297;49.450;6.640;2023-09-18T19:55:38;20.30;99.90
40589;DHT22;26297;49.450;6.640;2023-09-18T19:58:41;20.30;99.90
40589;DHT22;26297;49.450;6.640;2023-09-18T20:01:44;20.20;99.90
40589;DHT22;26297;49.450;6.640;2023-09-18T20:04:50;20.30;99.90
40589;DHT22;26297;49.450;6.640;2023-09-18T20:07:53;20.30;99.90
40589;DHT22;26297;49.450;6.640;2023-09-18T20:10:58;20.30;99.90
40589;DHT22;26297;49.450;6.640;2023-09-18T20:21:27;20.30;99.90
40589;DHT22;26297;49.450;6.640;2023-09-18T20:24:33;20.30;99.90
40589;DHT22;26297;49.450;6.640;2023-09-18T20:27:39;20.20;99.90
40589;DHT22;26297;49.450;6.640;2023-09-18T20:30:50;20.20;99.90
40589;DHT22;26297;49.450;6.640;2023-09-18T20:33:56;20.20;99.90
40589;DHT22;26297;49.450;6.640;2023-09-18T20:36:59;20.20;99.90
40589;DHT22;26297;49.450;6.640;2023-09-18T20:40:03;20.20;99.90
40589;DHT22;26297;49.450;6.640;2023-09-18T20:43:06;20.30;99.90
40589;DHT22;26297;49.450;6.640;2023-09-18T20:46:10;20.20;99.90
40589;DHT22;26297;49.450;6.640;2023-09-18T20:49:14;20.20;99.90
40589;DHT22;26297;49.450;6.640;2023-09-18T20:52:17;20.30;99.90
40589;DHT22;26297;49.450;6.640;2023-09-18T20:55:23;20.20;99.90
40589;DHT22;26297;49.450;6.640;2023-09-18T20:58:29;20.20;99.90
40589;DHT22;26297;49.450;6.640;2023-09-18T21:01:32;20.30;99.90
40589;DHT22;26297;49.450;6.640;2023-09-18T22:04:52;20.00;99.90
40589;DHT22;26297;49.450;6.640;2023-09-18T22:07:57;20.00;99.90
40589;DHT22;26297;49.450;6.640;2023-09-18T22:11:03;20.00;99.90
40589;DHT22;26297;49.450;6.640;2023-09-18T22:14:08;20.00;99.90
40589;DHT22;26297;49.450;6.640;2023-09-18T22:17:13;20.00;99.90
40589;DHT22;26297;49.450;6.640;2023-09-18T22:20:17;20.00;99.90
40589;DHT22;26297;49.450;6.640;2023-09-18T22:23:20;20.00;99.90
40589;DHT22;26297;49.450;6.640;2023-09-18T22:26:23;20.00;99.90
40589;DHT22;26297;49.450;6.640;2023-09-18T22:29:26;20.00;99.90
40589;DHT22;26297;49.450;6.640;2023-09-18T22:32:29;20.00;99.90
40589;DHT22;26297;49.450;6.640;2023-09-18T22:56:55;20.00;99.90
40589;DHT22;26297;49.450;6.640;2023-09-18T23:27:59;19.80;99.90
40589;DHT22;26297;49.450;6.640;2023-09-18T23:35:03;19.90;99.90
40589;DHT22;26297;49.450;6.640;2023-09-18T23:46:31;19.90;99.90
40589;DHT22;26297;49.450;6.640;2023-09-18T23:49:34;19.90;99.90
40589;DHT22;26297;49.450;6.640;2023-09-18T23:52:38;19.90;99.90
40589;DHT22;26297;49.450;6.640;2023-09-18T23:55:44;19.90;99.90
40589;DHT22;26297;49.450;6.640;2023-09-18T23:58:49;19.90;99.90
